sensor_id;sensor_type;location;lat;lon;timestamp;P1;durP1;ratioP1;P2;durP2;ratioP2
51467;SDS011;37545;45.302;-122.946;2023-04-10T00:00:11;3.55;;;0.90;;
51467;SDS011;37545;45.302;-122.946;2023-04-10T00:02:42;2.53;;;0.70;;
51467;SDS011;37545;45.302;-122.946;2023-04-10T00:05:10;3.17;;;1.40;;
51467;SDS011;37545;45.302;-122.946;2023-04-10T00:07:39;2.00;;;0.85;;
51467;SDS011;37545;45.302;-122.946;2023-04-10T00:10:08;1.00;;;0.63;;
51467;SDS011;37545;45.302;-122.946;2023-04-10T00:12:37;3.42;;;1.20;;
51467;SDS011;37545;45.302;-122.946;2023-04-10T00:15:06;4.40;;;1.98;;
51467;SDS011;37545;45.302;-122.946;2023-04-10T00:17:37;2.33;;;0.88;;
51467;SDS011;37545;45.302;-122.946;2023-04-10T00:20:06;1.33;;;0.57;;
51467;SDS011;37545;45.302;-122.946;2023-04-10T00:22:35;1.75;;;0.57;;
51467;SDS011;37545;45.302;-122.946;2023-04-10T00:25:04;1.95;;;1.73;;
51467;SDS011;37545;45.302;-122.946;2023-04-10T00:27:33;1.30;;;0.65;;
51467;SDS011;37545;45.302;-122.946;2023-04-10T00:30:02;1.83;;;0.60;;
51467;SDS011;37545;45.302;-122.946;2023-04-10T00:32:30;2.35;;;0.98;;
51467;SDS011;37545;45.302;-122.946;2023-04-10T00:35:01;0.95;;;0.68;;
51467;SDS011;37545;45.302;-122.946;2023-04-10T00:37:29;1.58;;;0.95;;
51467;SDS011;37545;45.302;-122.946;2023-04-10T00:39:58;1.58;;;0.70;;
51467;SDS011;37545;45.302;-122.946;2023-04-10T00:42:27;4.65;;;1.02;;
51467;SDS011;37545;45.302;-122.946;2023-04-10T00:44:55;1.90;;;1.00;;
51467;SDS011;37545;45.302;-122.946;2023-04-10T00:47:24;1.40;;;0.70;;
51467;SDS011;37545;45.302;-122.946;2023-04-10T00:49:53;3.20;;;0.77;;
51467;SDS011;37545;45.302;-122.946;2023-04-10T00:52:24;1.90;;;1.15;;
51467;SDS011;37545;45.302;-122.946;2023-04-10T00:54:53;2.22;;;0.80;;
51467;SDS011;37545;45.302;-122.946;2023-04-10T00:57:22;2.53;;;1.20;;
51467;SDS011;37545;45.302;-122.946;2023-04-10T00:59:51;1.92;;;0.70;;
51467;SDS011;37545;45.302;-122.946;2023-04-10T01:02:20;3.65;;;0.90;;
51467;SDS011;37545;45.302;-122.946;2023-04-10T01:04:49;4.32;;;0.80;;
51467;SDS011;37545;45.302;-122.946;2023-04-10T01:07:20;1.63;;;0.80;;
51467;SDS011;37545;45.302;-122.946;2023-04-10T01:10:06;2.13;;;0.80;;
51467;SDS011;37545;45.302;-122.946;2023-04-10T01:12:43;1.65;;;0.55;;
51467;SDS011;37545;45.302;-122.946;2023-04-10T01:15:26;0.75;;;0.70;;
51467;SDS011;37545;45.302;-122.946;2023-04-10T01:17:58;2.85;;;0.80;;
51467;SDS011;37545;45.302;-122.946;2023-04-10T01:20:32;4.30;;;0.80;;
51467;SDS011;37545;45.302;-122.946;2023-04-10T01:23:11;6.28;;;0.88;;
51467;SDS011;37545;45.302;-122.946;2023-04-10T01:26:15;1.77;;;0.98;;
51467;SDS011;37545;45.302;-122.946;2023-04-10T01:29:00;4.63;;;0.80;;
51467;SDS011;37545;45.302;-122.946;2023-04-10T01:31:36;1.75;;;0.70;;
51467;SDS011;37545;45.302;-122.946;2023-04-10T01:34:09;0.90;;;0.57;;
51467;SDS011;37545;45.302;-122.946;2023-04-10T01:36:45;3.35;;;0.95;;
51467;SDS011;37545;45.302;-122.946;2023-04-10T01:39:17;1.40;;;0.80;;
51467;SDS011;37545;45.302;-122.946;2023-04-10T01:41:47;0.90;;;0.60;;
51467;SDS011;37545;45.302;-122.946;2023-04-10T01:44:22;0.95;;;0.80;;
51467;SDS011;37545;45.302;-122.946;2023-04-10T01:47:00;2.15;;;0.88;;
51467;SDS011;37545;45.302;-122.946;2023-04-10T01:49:31;1.83;;;0.60;;
51467;SDS011;37545;45.302;-122.946;2023-04-10T01:52:02;1.40;;;0.73;;
51467;SDS011;37545;45.302;-122.946;2023-04-10T01:54:33;2.75;;;1.00;;
51467;SDS011;37545;45.302;-122.946;2023-04-10T01:57:02;1.60;;;0.95;;
51467;SDS011;37545;45.302;-122.946;2023-04-10T01:59:33;1.45;;;0.70;;
51467;SDS011;37545;45.302;-122.946;2023-04-10T02:02:03;2.60;;;1.35;;
51467;SDS011;37545;45.302;-122.946;2023-04-10T02:04:33;2.80;;;0.88;;
51467;SDS011;37545;45.302;-122.946;2023-04-10T02:07:02;1.60;;;0.85;;
51467;SDS011;37545;45.302;-122.946;2023-04-10T02:09:34;1.75;;;0.90;;
51467;SDS011;37545;45.302;-122.946;2023-04-10T02:12:12;2.33;;;1.08;;
51467;SDS011;37545;45.302;-122.946;2023-04-10T02:14:46;2.00;;;1.13;;
51467;SDS011;37545;45.302;-122.946;2023-04-10T02:17:17;2.57;;;1.00;;
51467;SDS011;37545;45.302;-122.946;2023-04-10T02:19:53;2.35;;;0.85;;
51467;SDS011;37545;45.302;-122.946;2023-04-10T02:22:23;2.47;;;0.85;;
51467;SDS011;37545;45.302;-122.946;2023-04-10T02:24:53;1.83;;;0.98;;
51467;SDS011;37545;45.302;-122.946;2023-04-10T02:27:28;1.85;;;0.85;;
51467;SDS011;37545;45.302;-122.946;2023-04-10T02:29:59;1.58;;;1.27;;
51467;SDS011;37545;45.302;-122.946;2023-04-10T02:32:28;4.38;;;0.90;;
51467;SDS011;37545;45.302;-122.946;2023-04-10T02:34:58;1.75;;;0.60;;
51467;SDS011;37545;45.302;-122.946;2023-04-10T02:37:26;2.63;;;1.00;;
51467;SDS011;37545;45.302;-122.946;2023-04-10T02:39:55;8.18;;;1.77;;
51467;SDS011;37545;45.302;-122.946;2023-04-10T02:42:24;3.67;;;1.35;;
51467;SDS011;37545;45.302;-122.946;2023-04-10T02:44:52;3.45;;;1.60;;
51467;SDS011;37545;45.302;-122.946;2023-04-10T02:47:22;3.65;;;1.85;;
51467;SDS011;37545;45.302;-122.946;2023-04-10T02:49:51;2.95;;;1.10;;
51467;SDS011;37545;45.302;-122.946;2023-04-10T02:52:20;3.85;;;1.13;;
51467;SDS011;37545;45.302;-122.946;2023-04-10T02:54:48;2.78;;;1.38;;
51467;SDS011;37545;45.302;-122.946;2023-04-10T02:57:17;2.15;;;1.05;;
51467;SDS011;37545;45.302;-122.946;2023-04-10T02:59:48;2.97;;;1.10;;
51467;SDS011;37545;45.302;-122.946;2023-04-10T03:02:17;1.40;;;0.85;;
51467;SDS011;37545;45.302;-122.946;2023-04-10T03:04:47;2.67;;;1.52;;
51467;SDS011;37545;45.302;-122.946;2023-04-10T03:07:19;3.50;;;1.42;;
51467;SDS011;37545;45.302;-122.946;2023-04-10T03:09:47;3.35;;;1.17;;
51467;SDS011;37545;45.302;-122.946;2023-04-10T03:12:16;3.53;;;1.33;;
51467;SDS011;37545;45.302;-122.946;2023-04-10T03:14:45;3.65;;;0.93;;
51467;SDS011;37545;45.302;-122.946;2023-04-10T03:17:13;1.88;;;1.08;;
51467;SDS011;37545;45.302;-122.946;2023-04-10T03:19:42;2.88;;;0.95;;
51467;SDS011;37545;45.302;-122.946;2023-04-10T03:22:12;2.55;;;0.95;;
51467;SDS011;37545;45.302;-122.946;2023-04-10T03:24:41;3.00;;;1.58;;
51467;SDS011;37545;45.302;-122.946;2023-04-10T03:27:10;3.45;;;1.10;;
51467;SDS011;37545;45.302;-122.946;2023-04-10T03:29:39;3.30;;;1.08;;
51467;SDS011;37545;45.302;-122.946;2023-04-10T03:32:08;1.98;;;1.17;;
51467;SDS011;37545;45.302;-122.946;2023-04-10T03:34:37;5.63;;;1.10;;
51467;SDS011;37545;45.302;-122.946;2023-04-10T03:37:09;1.98;;;1.00;;
51467;SDS011;37545;45.302;-122.946;2023-04-10T03:39:46;2.13;;;1.08;;
51467;SDS011;37545;45.302;-122.946;2023-04-10T03:42:16;3.60;;;0.73;;
51467;SDS011;37545;45.302;-122.946;2023-04-10T03:44:47;2.55;;;1.65;;
51467;SDS011;37545;45.302;-122.946;2023-04-10T03:47:15;2.63;;;0.90;;
51467;SDS011;37545;45.302;-122.946;2023-04-10T03:49:50;1.38;;;0.93;;
51467;SDS011;37545;45.302;-122.946;2023-04-10T03:52:32;1.63;;;1.05;;
51467;SDS011;37545;45.302;-122.946;2023-04-10T03:58:28;1.63;;;0.80;;
51467;SDS011;37545;45.302;-122.946;2023-04-10T04:01:09;3.42;;;1.00;;
51467;SDS011;37545;45.302;-122.946;2023-04-10T04:04:00;0.85;;;0.60;;
51467;SDS011;37545;45.302;-122.946;2023-04-10T04:06:42;1.65;;;0.95;;
51467;SDS011;37545;45.302;-122.946;2023-04-10T04:09:18;2.85;;;0.90;;
51467;SDS011;37545;45.302;-122.946;2023-04-10T04:11:47;1.45;;;0.85;;
51467;SDS011;37545;45.302;-122.946;2023-04-10T04:14:16;1.27;;;0.73;;
51467;SDS011;37545;45.302;-122.946;2023-04-10T04:16:50;4.50;;;1.02;;
51467;SDS011;37545;45.302;-122.946;2023-04-10T04:19:19;1.70;;;0.70;;
51467;SDS011;37545;45.302;-122.946;2023-04-10T04:21:50;1.10;;;0.80;;
51467;SDS011;37545;45.302;-122.946;2023-04-10T04:24:30;1.45;;;0.90;;
51467;SDS011;37545;45.302;-122.946;2023-04-10T04:26:59;3.10;;;0.90;;
51467;SDS011;37545;45.302;-122.946;2023-04-10T04:29:27;2.15;;;0.95;;
51467;SDS011;37545;45.302;-122.946;2023-04-10T04:31:56;2.10;;;0.88;;
51467;SDS011;37545;45.302;-122.946;2023-04-10T04:34:25;2.70;;;1.00;;
51467;SDS011;37545;45.302;-122.946;2023-04-10T04:36:53;3.25;;;1.10;;
51467;SDS011;37545;45.302;-122.946;2023-04-10T04:39:22;1.20;;;0.80;;
51467;SDS011;37545;45.302;-122.946;2023-04-10T04:42:01;2.53;;;0.90;;
51467;SDS011;37545;45.302;-122.946;2023-04-10T04:44:35;1.33;;;0.85;;
51467;SDS011;37545;45.302;-122.946;2023-04-10T04:47:11;3.28;;;0.77;;
51467;SDS011;37545;45.302;-122.946;2023-04-10T04:49:40;3.35;;;0.80;;
51467;SDS011;37545;45.302;-122.946;2023-04-10T04:52:08;2.53;;;0.80;;
51467;SDS011;37545;45.302;-122.946;2023-04-10T04:54:37;0.90;;;0.55;;
51467;SDS011;37545;45.302;-122.946;2023-04-10T04:57:07;7.30;;;0.73;;
51467;SDS011;37545;45.302;-122.946;2023-04-10T04:59:36;2.20;;;0.80;;
51467;SDS011;37545;45.302;-122.946;2023-04-10T05:02:04;1.05;;;0.80;;
51467;SDS011;37545;45.302;-122.946;2023-04-10T05:04:33;0.88;;;0.57;;
51467;SDS011;37545;45.302;-122.946;2023-04-10T05:07:02;1.00;;;0.57;;
51467;SDS011;37545;45.302;-122.946;2023-04-10T05:09:30;1.52;;;0.80;;
51467;SDS011;37545;45.302;-122.946;2023-04-10T05:11:59;1.95;;;0.60;;
51467;SDS011;37545;45.302;-122.946;2023-04-10T05:14:30;3.97;;;0.60;;
51467;SDS011;37545;45.302;-122.946;2023-04-10T05:17:01;0.73;;;0.50;;
51467;SDS011;37545;45.302;-122.946;2023-04-10T05:19:31;0.60;;;0.50;;
51467;SDS011;37545;45.302;-122.946;2023-04-10T05:22:00;0.98;;;0.50;;
51467;SDS011;37545;45.302;-122.946;2023-04-10T05:24:29;0.80;;;0.50;;
51467;SDS011;37545;45.302;-122.946;2023-04-10T05:26:57;1.52;;;0.85;;
51467;SDS011;37545;45.302;-122.946;2023-04-10T05:29:26;1.20;;;0.80;;
51467;SDS011;37545;45.302;-122.946;2023-04-10T05:31:56;0.90;;;0.50;;
51467;SDS011;37545;45.302;-122.946;2023-04-10T05:34:25;1.35;;;0.82;;
51467;SDS011;37545;45.302;-122.946;2023-04-10T05:36:54;0.70;;;0.47;;
51467;SDS011;37545;45.302;-122.946;2023-04-10T05:39:22;1.70;;;0.55;;
51467;SDS011;37545;45.302;-122.946;2023-04-10T05:41:51;0.80;;;0.60;;
51467;SDS011;37545;45.302;-122.946;2023-04-10T05:44:19;1.02;;;0.55;;
51467;SDS011;37545;45.302;-122.946;2023-04-10T05:46:48;1.25;;;0.75;;
51467;SDS011;37545;45.302;-122.946;2023-04-10T05:49:18;0.80;;;0.55;;
51467;SDS011;37545;45.302;-122.946;2023-04-10T05:51:54;1.17;;;0.55;;
51467;SDS011;37545;45.302;-122.946;2023-04-10T05:54:22;0.77;;;0.60;;
51467;SDS011;37545;45.302;-122.946;2023-04-10T05:56:51;0.85;;;0.55;;
51467;SDS011;37545;45.302;-122.946;2023-04-10T05:59:19;3.03;;;0.60;;
51467;SDS011;37545;45.302;-122.946;2023-04-10T06:01:48;1.25;;;0.75;;
51467;SDS011;37545;45.302;-122.946;2023-04-10T06:04:18;1.77;;;0.70;;
51467;SDS011;37545;45.302;-122.946;2023-04-10T06:06:47;1.58;;;0.75;;
51467;SDS011;37545;45.302;-122.946;2023-04-10T06:09:16;1.63;;;0.70;;
51467;SDS011;37545;45.302;-122.946;2023-04-10T06:11:45;1.05;;;0.60;;
51467;SDS011;37545;45.302;-122.946;2023-04-10T06:14:13;1.05;;;0.80;;
51467;SDS011;37545;45.302;-122.946;2023-04-10T06:16:42;1.65;;;0.77;;
51467;SDS011;37545;45.302;-122.946;2023-04-10T06:19:10;3.05;;;1.15;;
51467;SDS011;37545;45.302;-122.946;2023-04-10T06:21:41;2.28;;;1.13;;
51467;SDS011;37545;45.302;-122.946;2023-04-10T06:24:09;1.38;;;0.95;;
51467;SDS011;37545;45.302;-122.946;2023-04-10T06:26:38;2.38;;;1.30;;
51467;SDS011;37545;45.302;-122.946;2023-04-10T06:29:06;2.45;;;1.60;;
51467;SDS011;37545;45.302;-122.946;2023-04-10T06:31:35;2.92;;;1.40;;
51467;SDS011;37545;45.302;-122.946;2023-04-10T06:34:04;1.10;;;0.73;;
51467;SDS011;37545;45.302;-122.946;2023-04-10T06:36:32;1.48;;;0.98;;
51467;SDS011;37545;45.302;-122.946;2023-04-10T06:39:02;1.75;;;0.85;;
51467;SDS011;37545;45.302;-122.946;2023-04-10T06:41:32;1.25;;;0.85;;
51467;SDS011;37545;45.302;-122.946;2023-04-10T06:44:00;2.00;;;0.90;;
51467;SDS011;37545;45.302;-122.946;2023-04-10T06:46:29;1.08;;;0.98;;
51467;SDS011;37545;45.302;-122.946;2023-04-10T06:48:57;1.30;;;0.73;;
51467;SDS011;37545;45.302;-122.946;2023-04-10T06:51:26;1.33;;;0.70;;
51467;SDS011;37545;45.302;-122.946;2023-04-10T06:53:54;1.67;;;1.13;;
51467;SDS011;37545;45.302;-122.946;2023-04-10T06:56:25;1.70;;;1.00;;
51467;SDS011;37545;45.302;-122.946;2023-04-10T06:58:53;2.60;;;0.93;;
51467;SDS011;37545;45.302;-122.946;2023-04-10T07:01:22;1.10;;;0.90;;
51467;SDS011;37545;45.302;-122.946;2023-04-10T07:03:50;1.95;;;0.80;;
51467;SDS011;37545;45.302;-122.946;2023-04-10T07:06:19;1.27;;;0.98;;
51467;SDS011;37545;45.302;-122.946;2023-04-10T07:08:48;2.15;;;1.00;;
51467;SDS011;37545;45.302;-122.946;2023-04-10T07:11:16;1.88;;;0.93;;
51467;SDS011;37545;45.302;-122.946;2023-04-10T07:13:47;1.98;;;1.10;;
51467;SDS011;37545;45.302;-122.946;2023-04-10T07:16:18;1.65;;;1.00;;
51467;SDS011;37545;45.302;-122.946;2023-04-10T07:18:46;1.00;;;0.70;;
51467;SDS011;37545;45.302;-122.946;2023-04-10T07:21:15;1.00;;;0.82;;
51467;SDS011;37545;45.302;-122.946;2023-04-10T07:23:43;5.35;;;1.20;;
51467;SDS011;37545;45.302;-122.946;2023-04-10T07:26:12;1.08;;;0.80;;
51467;SDS011;37545;45.302;-122.946;2023-04-10T07:28:41;2.80;;;1.00;;
51467;SDS011;37545;45.302;-122.946;2023-04-10T07:31:11;1.10;;;0.90;;
51467;SDS011;37545;45.302;-122.946;2023-04-10T07:33:40;1.40;;;0.93;;
51467;SDS011;37545;45.302;-122.946;2023-04-10T07:36:08;1.50;;;0.98;;
51467;SDS011;37545;45.302;-122.946;2023-04-10T07:38:37;3.00;;;1.30;;
51467;SDS011;37545;45.302;-122.946;2023-04-10T07:41:05;1.73;;;1.05;;
51467;SDS011;37545;45.302;-122.946;2023-04-10T07:43:34;1.17;;;0.88;;
51467;SDS011;37545;45.302;-122.946;2023-04-10T07:46:02;1.23;;;0.85;;
51467;SDS011;37545;45.302;-122.946;2023-04-10T07:48:33;3.78;;;1.13;;
51467;SDS011;37545;45.302;-122.946;2023-04-10T07:51:01;1.85;;;1.05;;
51467;SDS011;37545;45.302;-122.946;2023-04-10T07:53:33;1.38;;;0.90;;
51467;SDS011;37545;45.302;-122.946;2023-04-10T07:56:02;2.08;;;1.08;;
51467;SDS011;37545;45.302;-122.946;2023-04-10T07:58:31;1.60;;;0.90;;
51467;SDS011;37545;45.302;-122.946;2023-04-10T08:01:01;1.58;;;0.98;;
51467;SDS011;37545;45.302;-122.946;2023-04-10T08:03:29;1.73;;;0.93;;
51467;SDS011;37545;45.302;-122.946;2023-04-10T08:06:05;1.10;;;0.70;;
51467;SDS011;37545;45.302;-122.946;2023-04-10T08:08:35;2.15;;;1.00;;
51467;SDS011;37545;45.302;-122.946;2023-04-10T08:11:06;1.10;;;0.73;;
51467;SDS011;37545;45.302;-122.946;2023-04-10T08:13:47;4.88;;;1.02;;
51467;SDS011;37545;45.302;-122.946;2023-04-10T08:16:17;1.63;;;0.95;;
51467;SDS011;37545;45.302;-122.946;2023-04-10T08:18:46;0.90;;;0.70;;
51467;SDS011;37545;45.302;-122.946;2023-04-10T08:21:16;1.25;;;0.95;;
51467;SDS011;37545;45.302;-122.946;2023-04-10T08:23:44;1.02;;;0.73;;
51467;SDS011;37545;45.302;-122.946;2023-04-10T08:26:13;0.95;;;0.75;;
51467;SDS011;37545;45.302;-122.946;2023-04-10T08:28:41;1.38;;;0.93;;
51467;SDS011;37545;45.302;-122.946;2023-04-10T08:31:11;1.25;;;0.80;;
51467;SDS011;37545;45.302;-122.946;2023-04-10T08:33:40;2.20;;;1.05;;
51467;SDS011;37545;45.302;-122.946;2023-04-10T08:36:09;1.42;;;0.95;;
51467;SDS011;37545;45.302;-122.946;2023-04-10T08:38:41;0.90;;;0.70;;
51467;SDS011;37545;45.302;-122.946;2023-04-10T08:41:10;1.00;;;0.90;;
51467;SDS011;37545;45.302;-122.946;2023-04-10T08:43:39;2.25;;;0.32;;
51467;SDS011;37545;45.302;-122.946;2023-04-10T08:46:10;0.50;;;0.30;;
51467;SDS011;37545;45.302;-122.946;2023-04-10T08:48:39;0.32;;;0.15;;
51467;SDS011;37545;45.302;-122.946;2023-04-10T08:51:13;0.17;;;0.10;;
51467;SDS011;37545;45.302;-122.946;2023-04-10T08:53:49;0.20;;;0.10;;
51467;SDS011;37545;45.302;-122.946;2023-04-10T08:56:20;0.10;;;0.10;;
51467;SDS011;37545;45.302;-122.946;2023-04-10T08:58:50;0.38;;;0.15;;
51467;SDS011;37545;45.302;-122.946;2023-04-10T09:01:19;0.00;;;0.00;;
51467;SDS011;37545;45.302;-122.946;2023-04-10T09:03:48;3.03;;;0.10;;
51467;SDS011;37545;45.302;-122.946;2023-04-10T09:06:17;0.20;;;0.15;;
51467;SDS011;37545;45.302;-122.946;2023-04-10T09:08:47;0.00;;;0.00;;
51467;SDS011;37545;45.302;-122.946;2023-04-10T09:11:15;0.20;;;0.10;;
51467;SDS011;37545;45.302;-122.946;2023-04-10T09:13:44;0.32;;;0.10;;
51467;SDS011;37545;45.302;-122.946;2023-04-10T09:16:12;0.10;;;0.10;;
51467;SDS011;37545;45.302;-122.946;2023-04-10T09:18:42;0.10;;;0.10;;
51467;SDS011;37545;45.302;-122.946;2023-04-10T09:21:13;0.05;;;0.05;;
51467;SDS011;37545;45.302;-122.946;2023-04-10T09:23:43;0.93;;;0.10;;
51467;SDS011;37545;45.302;-122.946;2023-04-10T09:26:24;0.75;;;0.30;;
51467;SDS011;37545;45.302;-122.946;2023-04-10T09:28:57;0.00;;;0.00;;
51467;SDS011;37545;45.302;-122.946;2023-04-10T09:31:27;1.80;;;0.20;;
51467;SDS011;37545;45.302;-122.946;2023-04-10T09:34:07;0.10;;;0.10;;
51467;SDS011;37545;45.302;-122.946;2023-04-10T09:36:39;0.10;;;0.10;;
51467;SDS011;37545;45.302;-122.946;2023-04-10T09:39:09;0.10;;;0.10;;
51467;SDS011;37545;45.302;-122.946;2023-04-10T09:41:47;0.20;;;0.10;;
51467;SDS011;37545;45.302;-122.946;2023-04-10T09:44:17;0.10;;;0.00;;
51467;SDS011;37545;45.302;-122.946;2023-04-10T09:46:55;0.20;;;0.10;;
51467;SDS011;37545;45.302;-122.946;2023-04-10T09:49:35;0.10;;;0.08;;
51467;SDS011;37545;45.302;-122.946;2023-04-10T09:52:18;0.00;;;0.00;;
51467;SDS011;37545;45.302;-122.946;2023-04-10T09:54:55;0.08;;;0.00;;
51467;SDS011;37545;45.302;-122.946;2023-04-10T09:57:26;0.05;;;0.00;;
51467;SDS011;37545;45.302;-122.946;2023-04-10T09:59:57;0.10;;;0.10;;
51467;SDS011;37545;45.302;-122.946;2023-04-10T10:02:27;0.20;;;0.20;;
51467;SDS011;37545;45.302;-122.946;2023-04-10T10:04:56;0.38;;;0.10;;
51467;SDS011;37545;45.302;-122.946;2023-04-10T10:07:26;0.10;;;0.10;;
51467;SDS011;37545;45.302;-122.946;2023-04-10T10:09:57;0.00;;;0.00;;
51467;SDS011;37545;45.302;-122.946;2023-04-10T10:12:31;0.28;;;0.17;;
51467;SDS011;37545;45.302;-122.946;2023-04-10T10:15:08;0.00;;;0.00;;
51467;SDS011;37545;45.302;-122.946;2023-04-10T10:17:41;0.20;;;0.20;;
51467;SDS011;37545;45.302;-122.946;2023-04-10T10:20:14;0.10;;;0.10;;
51467;SDS011;37545;45.302;-122.946;2023-04-10T10:22:47;0.10;;;0.10;;
51467;SDS011;37545;45.302;-122.946;2023-04-10T10:25:17;0.30;;;0.15;;
51467;SDS011;37545;45.302;-122.946;2023-04-10T10:27:48;0.10;;;0.10;;
51467;SDS011;37545;45.302;-122.946;2023-04-10T10:30:18;0.17;;;0.13;;
51467;SDS011;37545;45.302;-122.946;2023-04-10T10:32:48;0.10;;;0.10;;
51467;SDS011;37545;45.302;-122.946;2023-04-10T10:35:17;0.05;;;0.05;;
51467;SDS011;37545;45.302;-122.946;2023-04-10T10:37:46;0.00;;;0.00;;
51467;SDS011;37545;45.302;-122.946;2023-04-10T10:40:16;0.50;;;0.20;;
51467;SDS011;37545;45.302;-122.946;2023-04-10T10:42:54;0.25;;;0.15;;
51467;SDS011;37545;45.302;-122.946;2023-04-10T10:45:29;0.77;;;0.25;;
51467;SDS011;37545;45.302;-122.946;2023-04-10T10:48:01;0.25;;;0.20;;
51467;SDS011;37545;45.302;-122.946;2023-04-10T10:50:51;0.40;;;0.20;;
51467;SDS011;37545;45.302;-122.946;2023-04-10T10:53:31;0.10;;;0.10;;
51467;SDS011;37545;45.302;-122.946;2023-04-10T10:59:03;0.25;;;0.20;;
51467;SDS011;37545;45.302;-122.946;2023-04-10T11:01:32;0.40;;;0.20;;
51467;SDS011;37545;45.302;-122.946;2023-04-10T11:04:01;0.00;;;0.00;;
51467;SDS011;37545;45.302;-122.946;2023-04-10T11:07:00;0.90;;;0.32;;
51467;SDS011;37545;45.302;-122.946;2023-04-10T11:09:44;1.55;;;0.20;;
51467;SDS011;37545;45.302;-122.946;2023-04-10T11:12:14;0.82;;;0.28;;
51467;SDS011;37545;45.302;-122.946;2023-04-10T11:14:55;0.30;;;0.22;;
51467;SDS011;37545;45.302;-122.946;2023-04-10T11:20:14;0.38;;;0.20;;
51467;SDS011;37545;45.302;-122.946;2023-04-10T11:25:47;0.77;;;0.20;;
51467;SDS011;37545;45.302;-122.946;2023-04-10T11:28:33;0.17;;;0.10;;
51467;SDS011;37545;45.302;-122.946;2023-04-10T11:31:19;1.98;;;0.10;;
51467;SDS011;37545;45.302;-122.946;2023-04-10T11:33:49;0.60;;;0.17;;
51467;SDS011;37545;45.302;-122.946;2023-04-10T11:36:28;0.15;;;0.15;;
51467;SDS011;37545;45.302;-122.946;2023-04-10T11:38:57;0.73;;;0.10;;
51467;SDS011;37545;45.302;-122.946;2023-04-10T11:41:27;0.15;;;0.15;;
51467;SDS011;37545;45.302;-122.946;2023-04-10T11:43:56;0.52;;;0.20;;
51467;SDS011;37545;45.302;-122.946;2023-04-10T11:46:27;0.60;;;0.40;;
51467;SDS011;37545;45.302;-122.946;2023-04-10T11:48:57;0.45;;;0.30;;
51467;SDS011;37545;45.302;-122.946;2023-04-10T11:51:27;0.20;;;0.10;;
51467;SDS011;37545;45.302;-122.946;2023-04-10T11:54:06;0.03;;;0.03;;
51467;SDS011;37545;45.302;-122.946;2023-04-10T11:56:36;0.47;;;0.20;;
51467;SDS011;37545;45.302;-122.946;2023-04-10T11:59:05;0.60;;;0.38;;
51467;SDS011;37545;45.302;-122.946;2023-04-10T12:01:39;0.80;;;0.30;;
51467;SDS011;37545;45.302;-122.946;2023-04-10T12:04:14;0.20;;;0.20;;
51467;SDS011;37545;45.302;-122.946;2023-04-10T12:06:44;0.20;;;0.20;;
51467;SDS011;37545;45.302;-122.946;2023-04-10T12:09:14;0.17;;;0.10;;
51467;SDS011;37545;45.302;-122.946;2023-04-10T12:11:49;0.70;;;0.20;;
51467;SDS011;37545;45.302;-122.946;2023-04-10T12:14:19;0.85;;;0.47;;
51467;SDS011;37545;45.302;-122.946;2023-04-10T12:16:50;0.03;;;0.00;;
51467;SDS011;37545;45.302;-122.946;2023-04-10T12:19:19;0.10;;;0.10;;
51467;SDS011;37545;45.302;-122.946;2023-04-10T12:21:48;0.20;;;0.15;;
51467;SDS011;37545;45.302;-122.946;2023-04-10T12:27:14;0.22;;;0.20;;
51467;SDS011;37545;45.302;-122.946;2023-04-10T12:29:43;0.40;;;0.25;;
51467;SDS011;37545;45.302;-122.946;2023-04-10T12:32:13;0.30;;;0.20;;
51467;SDS011;37545;45.302;-122.946;2023-04-10T12:34:48;0.20;;;0.20;;
51467;SDS011;37545;45.302;-122.946;2023-04-10T12:37:17;0.45;;;0.17;;
51467;SDS011;37545;45.302;-122.946;2023-04-10T12:39:46;0.38;;;0.22;;
51467;SDS011;37545;45.302;-122.946;2023-04-10T12:42:15;0.20;;;0.20;;
51467;SDS011;37545;45.302;-122.946;2023-04-10T12:44:52;0.45;;;0.20;;
51467;SDS011;37545;45.302;-122.946;2023-04-10T12:47:23;0.20;;;0.20;;
51467;SDS011;37545;45.302;-122.946;2023-04-10T12:50:02;0.28;;;0.20;;
51467;SDS011;37545;45.302;-122.946;2023-04-10T12:52:36;0.57;;;0.25;;
51467;SDS011;37545;45.302;-122.946;2023-04-10T12:55:12;0.47;;;0.30;;
51467;SDS011;37545;45.302;-122.946;2023-04-10T12:57:42;0.32;;;0.10;;
51467;SDS011;37545;45.302;-122.946;2023-04-10T13:00:12;0.50;;;0.28;;
51467;SDS011;37545;45.302;-122.946;2023-04-10T13:02:44;1.73;;;0.35;;
51467;SDS011;37545;45.302;-122.946;2023-04-10T13:05:13;1.30;;;0.50;;
51467;SDS011;37545;45.302;-122.946;2023-04-10T13:07:42;0.95;;;0.30;;
51467;SDS011;37545;45.302;-122.946;2023-04-10T13:10:10;0.63;;;0.38;;
51467;SDS011;37545;45.302;-122.946;2023-04-10T13:12:39;0.65;;;0.22;;
51467;SDS011;37545;45.302;-122.946;2023-04-10T13:15:09;3.55;;;0.40;;
51467;SDS011;37545;45.302;-122.946;2023-04-10T13:17:38;1.48;;;0.50;;
51467;SDS011;37545;45.302;-122.946;2023-04-10T13:20:09;0.95;;;0.20;;
51467;SDS011;37545;45.302;-122.946;2023-04-10T13:22:38;0.93;;;0.20;;
51467;SDS011;37545;45.302;-122.946;2023-04-10T13:25:06;1.35;;;0.30;;
51467;SDS011;37545;45.302;-122.946;2023-04-10T13:27:35;0.77;;;0.40;;
51467;SDS011;37545;45.302;-122.946;2023-04-10T13:30:04;0.40;;;0.30;;
51467;SDS011;37545;45.302;-122.946;2023-04-10T13:32:34;0.50;;;0.20;;
51467;SDS011;37545;45.302;-122.946;2023-04-10T13:35:02;1.02;;;0.50;;
51467;SDS011;37545;45.302;-122.946;2023-04-10T13:37:33;0.57;;;0.35;;
51467;SDS011;37545;45.302;-122.946;2023-04-10T13:40:02;0.52;;;0.30;;
51467;SDS011;37545;45.302;-122.946;2023-04-10T13:42:31;0.85;;;0.45;;
51467;SDS011;37545;45.302;-122.946;2023-04-10T13:45:07;1.75;;;0.52;;
51467;SDS011;37545;45.302;-122.946;2023-04-10T13:47:36;1.27;;;0.40;;
51467;SDS011;37545;45.302;-122.946;2023-04-10T13:50:05;0.85;;;0.32;;
51467;SDS011;37545;45.302;-122.946;2023-04-10T13:52:35;0.80;;;0.35;;
51467;SDS011;37545;45.302;-122.946;2023-04-10T13:55:04;0.60;;;0.28;;
51467;SDS011;37545;45.302;-122.946;2023-04-10T13:57:34;1.38;;;0.40;;
51467;SDS011;37545;45.302;-122.946;2023-04-10T14:00:02;0.60;;;0.50;;
51467;SDS011;37545;45.302;-122.946;2023-04-10T14:02:32;0.30;;;0.30;;
51467;SDS011;37545;45.302;-122.946;2023-04-10T14:05:00;0.13;;;0.10;;
51467;SDS011;37545;45.302;-122.946;2023-04-10T14:07:29;1.33;;;0.50;;
51467;SDS011;37545;45.302;-122.946;2023-04-10T14:10:00;0.20;;;0.20;;
51467;SDS011;37545;45.302;-122.946;2023-04-10T14:12:29;0.68;;;0.47;;
51467;SDS011;37545;45.302;-122.946;2023-04-10T14:14:58;1.55;;;0.50;;
51467;SDS011;37545;45.302;-122.946;2023-04-10T14:17:26;1.95;;;0.22;;
51467;SDS011;37545;45.302;-122.946;2023-04-10T14:19:55;0.43;;;0.30;;
51467;SDS011;37545;45.302;-122.946;2023-04-10T14:22:23;0.50;;;0.40;;
51467;SDS011;37545;45.302;-122.946;2023-04-10T14:24:52;0.30;;;0.28;;
51467;SDS011;37545;45.302;-122.946;2023-04-10T14:27:22;0.63;;;0.60;;
51467;SDS011;37545;45.302;-122.946;2023-04-10T14:29:51;0.40;;;0.32;;
51467;SDS011;37545;45.302;-122.946;2023-04-10T14:32:20;0.30;;;0.30;;
51467;SDS011;37545;45.302;-122.946;2023-04-10T14:34:48;0.73;;;0.43;;
51467;SDS011;37545;45.302;-122.946;2023-04-10T14:37:17;4.70;;;0.57;;
51467;SDS011;37545;45.302;-122.946;2023-04-10T14:39:47;1.90;;;0.32;;
51467;SDS011;37545;45.302;-122.946;2023-04-10T14:42:15;2.50;;;0.40;;
51467;SDS011;37545;45.302;-122.946;2023-04-10T14:44:45;0.65;;;0.52;;